sensor_id;sensor_type;location;lat;lon;timestamp;pressure;altitude;pressure_sealevel;temperature;humidity
596;BME280;19946;49.306;11.350;2023-01-13T00:01:24;95973.06;;;6.72;100.00
596;BME280;19946;49.306;11.350;2023-01-13T00:04:25;96022.56;;;6.97;100.00
596;BME280;19946;49.306;11.350;2023-01-13T00:07:25;95958.34;;;6.51;100.00
596;BME280;19946;49.306;11.350;2023-01-13T00:10:25;95997.88;;;6.62;100.00
596;BME280;19946;49.306;11.350;2023-01-13T00:13:26;95998.66;;;6.29;100.00
596;BME280;19946;49.306;11.350;2023-01-13T00:16:26;95918.84;;;5.62;100.00
596;BME280;19946;49.306;11.350;2023-01-13T00:19:26;95904.44;;;5.48;100.00
596;BME280;19946;49.306;11.350;2023-01-13T00:22:27;95993.72;;;6.03;100.00
596;BME280;19946;49.306;11.350;2023-01-13T00:25:27;95992.00;;;6.15;100.00
596;BME280;19946;49.306;11.350;2023-01-13T00:28:28;95940.28;;;5.96;100.00
596;BME280;19946;49.306;11.350;2023-01-13T00:31:28;95988.72;;;6.24;100.00
596;BME280;19946;49.306;11.350;2023-01-13T00:34:29;95988.97;;;6.32;100.00
596;BME280;19946;49.306;11.350;2023-01-13T00:37:29;95974.25;;;6.34;100.00
596;BME280;19946;49.306;11.350;2023-01-13T00:40:29;95904.72;;;5.78;100.00
596;BME280;19946;49.306;11.350;2023-01-13T00:43:31;95935.41;;;6.04;100.00
596;BME280;19946;49.306;11.350;2023-01-13T00:46:31;95935.44;;;6.15;100.00
596;BME280;19946;49.306;11.350;2023-01-13T00:49:32;95957.41;;;6.41;100.00
596;BME280;19946;49.306;11.350;2023-01-13T00:52:32;95899.19;;;6.07;100.00
596;BME280;19946;49.306;11.350;2023-01-13T00:55:32;95924.22;;;6.16;100.00
596;BME280;19946;49.306;11.350;2023-01-13T00:58:33;95962.78;;;6.49;100.00
596;BME280;19946;49.306;11.350;2023-01-13T01:01:34;95881.44;;;5.93;100.00
596;BME280;19946;49.306;11.350;2023-01-13T01:04:34;95761.59;;;5.12;100.00
596;BME280;19946;49.306;11.350;2023-01-13T01:07:35;95983.34;;;6.38;100.00
596;BME280;19946;49.306;11.350;2023-01-13T01:10:35;95844.69;;;5.57;100.00
596;BME280;19946;49.306;11.350;2023-01-13T01:13:36;95889.25;;;5.91;100.00
596;BME280;19946;49.306;11.350;2023-01-13T01:16:38;95896.91;;;5.80;100.00
596;BME280;19946;49.306;11.350;2023-01-13T01:19:39;95879.88;;;5.79;100.00
596;BME280;19946;49.306;11.350;2023-01-13T01:22:39;95955.63;;;6.19;100.00
596;BME280;19946;49.306;11.350;2023-01-13T01:25:39;95952.97;;;6.21;100.00
596;BME280;19946;49.306;11.350;2023-01-13T01:28:40;95954.94;;;6.29;100.00
596;BME280;19946;49.306;11.350;2023-01-13T01:31:41;95811.97;;;5.37;100.00
596;BME280;19946;49.306;11.350;2023-01-13T01:34:42;95858.50;;;5.78;100.00
596;BME280;19946;49.306;11.350;2023-01-13T01:37:42;95941.16;;;6.30;100.00
596;BME280;19946;49.306;11.350;2023-01-13T01:40:42;95878.50;;;5.97;100.00
596;BME280;19946;49.306;11.350;2023-01-13T01:43:54;95862.38;;;5.84;100.00
596;BME280;19946;49.306;11.350;2023-01-13T01:46:58;95912.06;;;6.29;100.00
596;BME280;19946;49.306;11.350;2023-01-13T01:50:00;95929.34;;;6.38;100.00
596;BME280;19946;49.306;11.350;2023-01-13T01:53:08;95926.78;;;6.38;100.00
596;BME280;19946;49.306;11.350;2023-01-13T01:56:10;95920.69;;;6.50;100.00
596;BME280;19946;49.306;11.350;2023-01-13T01:59:11;95856.91;;;6.11;100.00
596;BME280;19946;49.306;11.350;2023-01-13T02:02:12;95920.03;;;6.59;100.00
596;BME280;19946;49.306;11.350;2023-01-13T02:05:13;95920.47;;;6.53;100.00
596;BME280;19946;49.306;11.350;2023-01-13T02:08:13;95822.78;;;5.98;100.00
596;BME280;19946;49.306;11.350;2023-01-13T02:11:28;95842.41;;;6.21;100.00
596;BME280;19946;49.306;11.350;2023-01-13T02:14:47;95835.41;;;6.23;100.00
596;BME280;19946;49.306;11.350;2023-01-13T02:17:51;95908.31;;;6.67;100.00
596;BME280;19946;49.306;11.350;2023-01-13T02:27:51;95869.75;;;6.44;100.00
596;BME280;19946;49.306;11.350;2023-01-13T02:30:57;95853.72;;;6.30;100.00
596;BME280;19946;49.306;11.350;2023-01-13T02:34:32;95871.16;;;6.48;100.00
596;BME280;19946;49.306;11.350;2023-01-13T02:37:38;95902.34;;;6.66;100.00
596;BME280;19946;49.306;11.350;2023-01-13T02:40:45;95884.94;;;6.58;100.00
596;BME280;19946;49.306;11.350;2023-01-13T02:43:48;95893.31;;;6.60;100.00
596;BME280;19946;49.306;11.350;2023-01-13T02:47:16;95802.94;;;6.11;100.00
596;BME280;19946;49.306;11.350;2023-01-13T02:50:21;95864.81;;;6.64;100.00
596;BME280;19946;49.306;11.350;2023-01-13T02:53:31;95882.47;;;6.68;100.00
596;BME280;19946;49.306;11.350;2023-01-13T02:56:37;95801.88;;;6.25;100.00
596;BME280;19946;49.306;11.350;2023-01-13T02:59:39;95862.63;;;6.48;100.00
596;BME280;19946;49.306;11.350;2023-01-13T03:02:40;95876.50;;;6.68;100.00
596;BME280;19946;49.306;11.350;2023-01-13T03:05:42;95868.78;;;6.68;100.00
596;BME280;19946;49.306;11.350;2023-01-13T03:08:54;95801.72;;;6.37;100.00
596;BME280;19946;49.306;11.350;2023-01-13T03:12:23;95822.75;;;6.42;100.00
596;BME280;19946;49.306;11.350;2023-01-13T03:22:18;95863.63;;;6.68;100.00
596;BME280;19946;49.306;11.350;2023-01-13T03:25:28;95861.31;;;6.53;100.00
596;BME280;19946;49.306;11.350;2023-01-13T03:28:39;95855.75;;;6.37;100.00
596;BME280;19946;49.306;11.350;2023-01-13T03:31:51;95863.44;;;6.37;100.00
596;BME280;19946;49.306;11.350;2023-01-13T03:34:58;95811.47;;;6.00;100.00
596;BME280;19946;49.306;11.350;2023-01-13T03:38:23;95797.91;;;5.98;100.00
596;BME280;19946;49.306;11.350;2023-01-13T03:41:29;95812.25;;;6.23;100.00
596;BME280;19946;49.306;11.350;2023-01-13T03:44:34;95809.56;;;6.25;100.00
596;BME280;19946;49.306;11.350;2023-01-13T03:47:50;95782.59;;;6.08;100.00
596;BME280;19946;49.306;11.350;2023-01-13T03:50:55;95753.88;;;5.92;100.00
596;BME280;19946;49.306;11.350;2023-01-13T03:54:00;95769.72;;;6.19;100.00
596;BME280;19946;49.306;11.350;2023-01-13T03:57:06;95788.75;;;6.28;100.00
596;BME280;19946;49.306;11.350;2023-01-13T04:00:11;95834.19;;;6.49;100.00
596;BME280;19946;49.306;11.350;2023-01-13T04:03:23;95786.19;;;6.28;100.00
596;BME280;19946;49.306;11.350;2023-01-13T04:06:55;95848.25;;;6.45;100.00
596;BME280;19946;49.306;11.350;2023-01-13T04:10:00;95828.41;;;6.25;100.00
596;BME280;19946;49.306;11.350;2023-01-13T04:13:05;95779.22;;;5.96;100.00
596;BME280;19946;49.306;11.350;2023-01-13T04:16:07;95776.19;;;5.91;100.00
596;BME280;19946;49.306;11.350;2023-01-13T04:19:09;95796.97;;;5.99;100.00
596;BME280;19946;49.306;11.350;2023-01-13T04:22:09;95844.53;;;6.27;100.00
596;BME280;19946;49.306;11.350;2023-01-13T04:25:10;95825.13;;;6.23;100.00
596;BME280;19946;49.306;11.350;2023-01-13T04:28:11;95781.09;;;5.94;100.00
596;BME280;19946;49.306;11.350;2023-01-13T04:31:12;95796.84;;;6.12;100.00
596;BME280;19946;49.306;11.350;2023-01-13T04:34:12;95834.56;;;6.34;100.00
596;BME280;19946;49.306;11.350;2023-01-13T04:37:13;95779.47;;;6.04;100.00
596;BME280;19946;49.306;11.350;2023-01-13T04:40:13;95799.63;;;6.31;100.00
596;BME280;19946;49.306;11.350;2023-01-13T04:43:14;95781.63;;;6.20;100.00
596;BME280;19946;49.306;11.350;2023-01-13T04:46:14;95761.31;;;6.17;100.00
596;BME280;19946;49.306;11.350;2023-01-13T04:49:15;95758.38;;;6.21;100.00
596;BME280;19946;49.306;11.350;2023-01-13T04:52:15;95832.56;;;6.59;100.00
596;BME280;19946;49.306;11.350;2023-01-13T04:55:18;95843.88;;;6.68;100.00
596;BME280;19946;49.306;11.350;2023-01-13T04:58:18;95801.59;;;6.39;100.00
596;BME280;19946;49.306;11.350;2023-01-13T05:01:19;95779.78;;;6.22;100.00
596;BME280;19946;49.306;11.350;2023-01-13T05:04:20;95720.91;;;5.85;100.00
596;BME280;19946;49.306;11.350;2023-01-13T05:07:20;95847.16;;;6.59;100.00
596;BME280;19946;49.306;11.350;2023-01-13T05:10:21;95843.31;;;6.53;100.00
596;BME280;19946;49.306;11.350;2023-01-13T05:13:21;95857.81;;;6.54;100.00
596;BME280;19946;49.306;11.350;2023-01-13T05:16:40;95873.72;;;6.48;100.00
596;BME280;19946;49.306;11.350;2023-01-13T05:19:59;95793.94;;;6.05;100.00
596;BME280;19946;49.306;11.350;2023-01-13T05:22:59;95853.50;;;6.44;100.00
596;BME280;19946;49.306;11.350;2023-01-13T05:26:18;95835.03;;;6.39;100.00
596;BME280;19946;49.306;11.350;2023-01-13T05:29:19;95740.63;;;5.85;100.00
596;BME280;19946;49.306;11.350;2023-01-13T05:32:20;95858.41;;;6.58;100.00
596;BME280;19946;49.306;11.350;2023-01-13T05:35:21;95792.75;;;6.20;100.00
596;BME280;19946;49.306;11.350;2023-01-13T05:38:21;95787.97;;;6.16;100.00
596;BME280;19946;49.306;11.350;2023-01-13T05:41:22;95773.25;;;6.07;100.00
596;BME280;19946;49.306;11.350;2023-01-13T05:44:41;95800.00;;;6.27;100.00
596;BME280;19946;49.306;11.350;2023-01-13T05:47:41;95760.66;;;6.04;100.00
596;BME280;19946;49.306;11.350;2023-01-13T05:50:42;95765.78;;;6.04;100.00
596;BME280;19946;49.306;11.350;2023-01-13T05:53:42;95683.09;;;5.54;100.00
596;BME280;19946;49.306;11.350;2023-01-13T05:56:43;95818.09;;;6.36;100.00
596;BME280;19946;49.306;11.350;2023-01-13T05:59:43;95798.47;;;6.24;100.00
596;BME280;19946;49.306;11.350;2023-01-13T06:02:43;95836.63;;;6.51;100.00
596;BME280;19946;49.306;11.350;2023-01-13T06:05:44;95771.03;;;6.13;100.00
596;BME280;19946;49.306;11.350;2023-01-13T06:08:44;95841.88;;;6.60;100.00
596;BME280;19946;49.306;11.350;2023-01-13T06:11:44;95780.81;;;6.19;100.00
596;BME280;19946;49.306;11.350;2023-01-13T06:14:45;95782.22;;;6.23;100.00
596;BME280;19946;49.306;11.350;2023-01-13T06:17:46;95732.38;;;5.81;100.00
596;BME280;19946;49.306;11.350;2023-01-13T06:20:46;95822.28;;;6.48;100.00
596;BME280;19946;49.306;11.350;2023-01-13T06:23:46;95759.94;;;6.13;100.00
596;BME280;19946;49.306;11.350;2023-01-13T06:26:46;95842.84;;;6.59;100.00
596;BME280;19946;49.306;11.350;2023-01-13T06:29:47;95765.50;;;6.18;100.00
596;BME280;19946;49.306;11.350;2023-01-13T06:32:51;95825.78;;;6.47;100.00
596;BME280;19946;49.306;11.350;2023-01-13T06:35:57;95777.34;;;6.09;100.00
596;BME280;19946;49.306;11.350;2023-01-13T06:39:01;95786.09;;;6.07;100.00
596;BME280;19946;49.306;11.350;2023-01-13T06:42:02;95850.59;;;6.37;100.00
596;BME280;19946;49.306;11.350;2023-01-13T06:45:23;95801.88;;;6.13;100.00
596;BME280;19946;49.306;11.350;2023-01-13T06:48:26;95820.78;;;6.23;100.00
596;BME280;19946;49.306;11.350;2023-01-13T06:51:28;95771.72;;;5.82;100.00
596;BME280;19946;49.306;11.350;2023-01-13T06:54:28;95791.00;;;5.99;100.00
596;BME280;19946;49.306;11.350;2023-01-13T06:57:28;95758.06;;;5.81;100.00
596;BME280;19946;49.306;11.350;2023-01-13T07:00:29;95837.16;;;6.34;100.00
596;BME280;19946;49.306;11.350;2023-01-13T07:03:31;95790.31;;;5.97;100.00
596;BME280;19946;49.306;11.350;2023-01-13T07:06:31;95779.19;;;5.85;100.00
596;BME280;19946;49.306;11.350;2023-01-13T07:09:32;95775.13;;;5.82;100.00
596;BME280;19946;49.306;11.350;2023-01-13T07:12:32;95777.94;;;5.91;100.00
596;BME280;19946;49.306;11.350;2023-01-13T07:16:03;95741.00;;;5.47;100.00
596;BME280;19946;49.306;11.350;2023-01-13T07:19:12;95802.59;;;6.04;100.00
596;BME280;19946;49.306;11.350;2023-01-13T07:22:13;95843.22;;;6.33;100.00
596;BME280;19946;49.306;11.350;2023-01-13T07:25:13;95806.91;;;6.15;100.00
596;BME280;19946;49.306;11.350;2023-01-13T07:28:14;95858.75;;;6.42;100.00
596;BME280;19946;49.306;11.350;2023-01-13T07:31:18;95770.34;;;5.89;100.00
596;BME280;19946;49.306;11.350;2023-01-13T07:34:20;95731.56;;;5.70;100.00
596;BME280;19946;49.306;11.350;2023-01-13T07:37:20;95810.41;;;6.25;100.00
596;BME280;19946;49.306;11.350;2023-01-13T07:40:20;95842.59;;;6.51;100.00
596;BME280;19946;49.306;11.350;2023-01-13T07:43:21;95745.59;;;5.88;100.00
596;BME280;19946;49.306;11.350;2023-01-13T07:46:33;95826.84;;;6.45;100.00
596;BME280;19946;49.306;11.350;2023-01-13T07:49:34;95787.16;;;6.15;100.00
596;BME280;19946;49.306;11.350;2023-01-13T07:52:34;95783.75;;;6.26;100.00
596;BME280;19946;49.306;11.350;2023-01-13T07:55:40;95782.13;;;6.25;100.00
596;BME280;19946;49.306;11.350;2023-01-13T07:58:40;95779.66;;;6.23;100.00
596;BME280;19946;49.306;11.350;2023-01-13T08:01:41;95849.94;;;6.67;100.00
596;BME280;19946;49.306;11.350;2023-01-13T08:04:41;95844.69;;;6.69;100.00
596;BME280;19946;49.306;11.350;2023-01-13T08:07:41;95793.44;;;6.34;100.00
596;BME280;19946;49.306;11.350;2023-01-13T08:10:42;95769.00;;;6.28;100.00
596;BME280;19946;49.306;11.350;2023-01-13T08:13:42;95844.44;;;6.72;100.00
596;BME280;19946;49.306;11.350;2023-01-13T08:16:42;95796.31;;;6.40;100.00
596;BME280;19946;49.306;11.350;2023-01-13T08:19:42;95799.00;;;6.50;100.00
596;BME280;19946;49.306;11.350;2023-01-13T08:22:43;95850.25;;;6.85;100.00
596;BME280;19946;49.306;11.350;2023-01-13T08:25:44;95850.25;;;6.85;100.00
596;BME280;19946;49.306;11.350;2023-01-13T08:28:44;95818.13;;;6.68;100.00
596;BME280;19946;49.306;11.350;2023-01-13T08:31:45;95831.78;;;6.80;100.00
596;BME280;19946;49.306;11.350;2023-01-13T08:34:45;95788.47;;;6.53;100.00
596;BME280;19946;49.306;11.350;2023-01-13T08:37:46;95722.91;;;6.15;100.00
596;BME280;19946;49.306;11.350;2023-01-13T08:40:47;95842.50;;;6.96;100.00
596;BME280;19946;49.306;11.350;2023-01-13T08:43:47;95808.53;;;6.81;100.00
596;BME280;19946;49.306;11.350;2023-01-13T08:46:48;95825.16;;;6.98;100.00
596;BME280;19946;49.306;11.350;2023-01-13T08:49:48;95847.13;;;7.13;100.00
596;BME280;19946;49.306;11.350;2023-01-13T08:52:49;95827.25;;;7.04;100.00
596;BME280;19946;49.306;11.350;2023-01-13T08:55:49;95740.66;;;6.50;100.00
596;BME280;19946;49.306;11.350;2023-01-13T08:58:49;95835.97;;;7.24;100.00
596;BME280;19946;49.306;11.350;2023-01-13T09:01:50;95828.59;;;7.19;100.00
596;BME280;19946;49.306;11.350;2023-01-13T09:04:51;95830.53;;;7.27;100.00
596;BME280;19946;49.306;11.350;2023-01-13T09:07:51;95842.75;;;7.46;100.00
596;BME280;19946;49.306;11.350;2023-01-13T09:10:52;95835.69;;;7.48;100.00
596;BME280;19946;49.306;11.350;2023-01-13T09:13:52;95783.38;;;7.26;100.00
596;BME280;19946;49.306;11.350;2023-01-13T09:16:52;95749.94;;;6.94;100.00
596;BME280;19946;49.306;11.350;2023-01-13T09:19:53;95838.41;;;7.67;100.00
596;BME280;19946;49.306;11.350;2023-01-13T09:22:53;95776.28;;;7.19;100.00
596;BME280;19946;49.306;11.350;2023-01-13T09:25:53;95849.72;;;7.76;100.00
596;BME280;19946;49.306;11.350;2023-01-13T09:28:54;95766.44;;;7.24;100.00
596;BME280;19946;49.306;11.350;2023-01-13T09:31:54;95859.13;;;7.86;100.00
596;BME280;19946;49.306;11.350;2023-01-13T09:34:57;95813.13;;;7.61;100.00
596;BME280;19946;49.306;11.350;2023-01-13T09:38:00;95796.81;;;7.51;100.00
596;BME280;19946;49.306;11.350;2023-01-13T09:41:00;95818.66;;;7.77;100.00
596;BME280;19946;49.306;11.350;2023-01-13T09:44:38;95806.91;;;7.63;100.00
596;BME280;19946;49.306;11.350;2023-01-13T09:47:47;95822.59;;;7.81;100.00
596;BME280;19946;49.306;11.350;2023-01-13T09:51:02;95808.47;;;7.76;100.00
596;BME280;19946;49.306;11.350;2023-01-13T09:57:35;95803.28;;;7.66;100.00
596;BME280;19946;49.306;11.350;2023-01-13T10:00:42;95834.78;;;8.00;100.00
596;BME280;19946;49.306;11.350;2023-01-13T10:03:46;95782.53;;;7.67;100.00
596;BME280;19946;49.306;11.350;2023-01-13T10:06:51;95800.06;;;7.74;100.00
596;BME280;19946;49.306;11.350;2023-01-13T10:09:57;95783.50;;;7.46;100.00
596;BME280;19946;49.306;11.350;2023-01-13T10:12:58;95727.53;;;7.27;100.00
596;BME280;19946;49.306;11.350;2023-01-13T10:16:26;95850.88;;;7.92;100.00
596;BME280;19946;49.306;11.350;2023-01-13T10:19:34;95747.19;;;7.07;100.00
596;BME280;19946;49.306;11.350;2023-01-13T10:22:50;95784.56;;;7.22;100.00
596;BME280;19946;49.306;11.350;2023-01-13T10:29:31;95801.41;;;6.94;100.00
596;BME280;19946;49.306;11.350;2023-01-13T10:32:32;95883.41;;;7.10;100.00
596;BME280;19946;49.306;11.350;2023-01-13T10:39:06;95937.09;;;6.27;100.00
596;BME280;19946;49.306;11.350;2023-01-13T10:42:12;95853.31;;;5.56;100.00
596;BME280;19946;49.306;11.350;2023-01-13T10:45:23;95944.50;;;5.97;100.00
596;BME280;19946;49.306;11.350;2023-01-13T10:48:40;95923.16;;;5.61;100.00
596;BME280;19946;49.306;11.350;2023-01-13T10:51:43;95966.56;;;5.64;100.00
596;BME280;19946;49.306;11.350;2023-01-13T10:54:50;95912.56;;;5.42;100.00
596;BME280;19946;49.306;11.350;2023-01-13T10:57:51;95885.25;;;5.06;100.00
596;BME280;19946;49.306;11.350;2023-01-13T11:01:04;95879.59;;;4.77;100.00
596;BME280;19946;49.306;11.350;2023-01-13T11:04:31;95940.88;;;5.05;100.00
596;BME280;19946;49.306;11.350;2023-01-13T11:07:35;95939.19;;;5.17;100.00
596;BME280;19946;49.306;11.350;2023-01-13T11:10:44;95914.00;;;4.98;100.00
596;BME280;19946;49.306;11.350;2023-01-13T11:13:46;95910.66;;;5.09;100.00
596;BME280;19946;49.306;11.350;2023-01-13T11:20:47;95892.34;;;5.02;100.00
596;BME280;19946;49.306;11.350;2023-01-13T11:27:15;95851.69;;;4.85;100.00
596;BME280;19946;49.306;11.350;2023-01-13T11:30:27;95838.50;;;4.90;100.00
596;BME280;19946;49.306;11.350;2023-01-13T11:33:36;95877.91;;;5.12;100.00
596;BME280;19946;49.306;11.350;2023-01-13T11:36:45;95841.91;;;4.90;100.00
596;BME280;19946;49.306;11.350;2023-01-13T11:39:51;95911.53;;;5.44;100.00
596;BME280;19946;49.306;11.350;2023-01-13T11:46:25;95832.34;;;4.92;100.00
596;BME280;19946;49.306;11.350;2023-01-13T11:49:28;95916.88;;;5.41;100.00
596;BME280;19946;49.306;11.350;2023-01-13T11:53:03;95905.47;;;5.45;100.00
596;BME280;19946;49.306;11.350;2023-01-13T11:59:57;95924.75;;;5.51;100.00
596;BME280;19946;49.306;11.350;2023-01-13T12:09:29;95914.81;;;5.46;100.00
596;BME280;19946;49.306;11.350;2023-01-13T12:12:50;95927.97;;;5.42;100.00
596;BME280;19946;49.306;11.350;2023-01-13T12:16:01;95935.97;;;5.50;100.00
596;BME280;19946;49.306;11.350;2023-01-13T12:22:27;95888.69;;;5.18;100.00
596;BME280;19946;49.306;11.350;2023-01-13T12:25:36;95895.09;;;5.23;100.00
596;BME280;19946;49.306;11.350;2023-01-13T12:28:53;95894.41;;;5.21;100.00
596;BME280;19946;49.306;11.350;2023-01-13T12:31:58;95892.38;;;5.37;100.00
596;BME280;19946;49.306;11.350;2023-01-13T12:35:13;95938.38;;;5.86;100.00
596;BME280;19946;49.306;11.350;2023-01-13T12:41:43;95920.34;;;5.99;100.00
596;BME280;19946;49.306;11.350;2023-01-13T12:48:43;95909.03;;;6.35;100.00
596;BME280;19946;49.306;11.350;2023-01-13T13:01:12;95914.41;;;6.54;100.00
596;BME280;19946;49.306;11.350;2023-01-13T13:04:21;95856.56;;;5.93;100.00
596;BME280;19946;49.306;11.350;2023-01-13T13:07:43;95917.78;;;6.10;100.00
596;BME280;19946;49.306;11.350;2023-01-13T13:11:01;95818.38;;;5.42;100.00
596;BME280;19946;49.306;11.350;2023-01-13T13:14:10;95808.09;;;5.31;100.00
596;BME280;19946;49.306;11.350;2023-01-13T13:17:37;95865.19;;;5.46;100.00
596;BME280;19946;49.306;11.350;2023-01-13T13:20:54;95960.09;;;5.82;100.00
596;BME280;19946;49.306;11.350;2023-01-13T13:24:01;95944.31;;;5.76;100.00
596;BME280;19946;49.306;11.350;2023-01-13T13:30:28;95895.97;;;5.35;100.00
596;BME280;19946;49.306;11.350;2023-01-13T13:34:11;95955.88;;;5.70;100.00
596;BME280;19946;49.306;11.350;2023-01-13T13:40:39;95825.00;;;4.99;100.00
596;BME280;19946;49.306;11.350;2023-01-13T13:44:34;95942.53;;;5.65;100.00
596;BME280;19946;49.306;11.350;2023-01-13T13:47:51;95957.16;;;5.76;100.00
596;BME280;19946;49.306;11.350;2023-01-13T13:50:57;95931.53;;;5.63;100.00
596;BME280;19946;49.306;11.350;2023-01-13T13:54:02;95971.53;;;6.13;100.00
596;BME280;19946;49.306;11.350;2023-01-13T13:57:02;95954.25;;;5.80;100.00
596;BME280;19946;49.306;11.350;2023-01-13T14:00:20;95901.59;;;5.40;100.00
596;BME280;19946;49.306;11.350;2023-01-13T14:03:28;95907.06;;;5.35;100.00
596;BME280;19946;49.306;11.350;2023-01-13T14:06:29;95940.81;;;5.42;100.00
596;BME280;19946;49.306;11.350;2023-01-13T14:09:44;95860.97;;;4.75;100.00
596;BME280;19946;49.306;11.350;2023-01-13T14:12:45;95991.34;;;5.41;100.00
596;BME280;19946;49.306;11.350;2023-01-13T14:15:56;95976.22;;;5.49;100.00
596;BME280;19946;49.306;11.350;2023-01-13T14:18:58;95997.75;;;5.60;100.00
596;BME280;19946;49.306;11.350;2023-01-13T14:22:03;95978.19;;;5.46;100.00
596;BME280;19946;49.306;11.350;2023-01-13T14:25:37;95970.25;;;5.25;100.00
596;BME280;19946;49.306;11.350;2023-01-13T14:28:39;95950.97;;;4.96;100.00
596;BME280;19946;49.306;11.350;2023-01-13T14:31:41;95904.69;;;4.61;100.00
596;BME280;19946;49.306;11.350;2023-01-13T14:34:41;95881.38;;;4.27;100.00
596;BME280;19946;49.306;11.350;2023-01-13T14:37:42;96008.44;;;5.06;100.00
596;BME280;19946;49.306;11.350;2023-01-13T14:40:43;95960.28;;;4.60;100.00
596;BME280;19946;49.306;11.350;2023-01-13T14:43:46;95951.78;;;4.60;100.00
596;BME280;19946;49.306;11.350;2023-01-13T14:46:48;95972.59;;;4.55;100.00
596;BME280;19946;49.306;11.350;2023-01-13T14:49:56;96036.59;;;4.82;100.00
596;BME280;19946;49.306;11.350;2023-01-13T14:52:59;96036.38;;;4.85;100.00
596;BME280;19946;49.306;11.350;2023-01-13T15:05:56;96065.84;;;4.80;100.00
596;BME280;19946;49.306;11.350;2023-01-13T15:08:58;96026.16;;;4.60;100.00
596;BME280;19946;49.306;11.350;2023-01-13T15:11:59;95999.50;;;4.50;100.00
596;BME280;19946;49.306;11.350;2023-01-13T15:15:21;96031.16;;;4.74;100.00
596;BME280;19946;49.306;11.350;2023-01-13T15:18:22;96064.59;;;4.85;100.00
596;BME280;19946;49.306;11.350;2023-01-13T15:21:23;95935.31;;;4.00;100.00
596;BME280;19946;49.306;11.350;2023-01-13T15:24:24;96045.13;;;4.57;100.00
596;BME280;19946;49.306;11.350;2023-01-13T15:27:24;96013.13;;;4.37;100.00
596;BME280;19946;49.306;11.350;2023-01-13T15:30:26;96095.16;;;4.88;100.00
596;BME280;19946;49.306;11.350;2023-01-13T15:33:27;96085.44;;;4.68;100.00
596;BME280;19946;49.306;11.350;2023-01-13T15:36:29;96021.84;;;4.10;100.00
596;BME280;19946;49.306;11.350;2023-01-13T15:39:30;96108.72;;;4.52;100.00
596;BME280;19946;49.306;11.350;2023-01-13T15:42:30;95982.19;;;3.63;100.00
596;BME280;19946;49.306;11.350;2023-01-13T15:45:50;96077.03;;;4.01;100.00
596;BME280;19946;49.306;11.350;2023-01-13T15:49:25;96129.81;;;4.30;100.00
596;BME280;19946;49.306;11.350;2023-01-13T15:52:27;96068.53;;;3.88;100.00
596;BME280;19946;49.306;11.350;2023-01-13T15:55:27;96139.16;;;4.31;100.00
596;BME280;19946;49.306;11.350;2023-01-13T15:58:28;96009.44;;;3.37;100.00
596;BME280;19946;49.306;11.350;2023-01-13T16:01:31;96052.00;;;3.52;100.00
596;BME280;19946;49.306;11.350;2023-01-13T16:04:31;95997.91;;;3.17;100.00
596;BME280;19946;49.306;11.350;2023-01-13T16:07:32;96165.44;;;4.08;100.00
596;BME280;19946;49.306;11.350;2023-01-13T16:10:33;96089.78;;;3.76;100.00
596;BME280;19946;49.306;11.350;2023-01-13T16:13:33;96188.22;;;4.25;100.00
596;BME280;19946;49.306;11.350;2023-01-13T16:16:34;96167.16;;;4.08;100.00
596;BME280;19946;49.306;11.350;2023-01-13T16:19:34;96118.56;;;3.79;100.00
596;BME280;19946;49.306;11.350;2023-01-13T16:22:35;96203.69;;;4.24;100.00
596;BME280;19946;49.306;11.350;2023-01-13T16:25:35;96115.31;;;3.77;100.00
596;BME280;19946;49.306;11.350;2023-01-13T16:28:36;96221.88;;;4.33;100.00
596;BME280;19946;49.306;11.350;2023-01-13T16:31:36;96142.66;;;3.77;100.00
596;BME280;19946;49.306;11.350;2023-01-13T16:34:37;96195.84;;;4.00;100.00
596;BME280;19946;49.306;11.350;2023-01-13T16:37:37;96223.88;;;4.16;100.00
596;BME280;19946;49.306;11.350;2023-01-13T16:40:38;96144.25;;;3.65;100.00
596;BME280;19946;49.306;11.350;2023-01-13T16:43:38;96166.00;;;3.58;100.00
596;BME280;19946;49.306;11.350;2023-01-13T16:46:39;96199.75;;;3.64;100.00
596;BME280;19946;49.306;11.350;2023-01-13T16:49:39;96252.19;;;4.00;100.00
596;BME280;19946;49.306;11.350;2023-01-13T16:52:40;96258.75;;;4.04;100.00
596;BME280;19946;49.306;11.350;2023-01-13T16:55:43;96277.03;;;4.12;100.00
596;BME280;19946;49.306;11.350;2023-01-13T16:58:43;96270.72;;;4.18;100.00
596;BME280;19946;49.306;11.350;2023-01-13T17:01:44;96254.91;;;4.11;100.00
596;BME280;19946;49.306;11.350;2023-01-13T17:04:44;96272.19;;;4.22;100.00
596;BME280;19946;49.306;11.350;2023-01-13T17:07:46;96261.88;;;4.09;100.00
596;BME280;19946;49.306;11.350;2023-01-13T17:10:49;96289.19;;;4.23;100.00
596;BME280;19946;49.306;11.350;2023-01-13T17:13:49;96201.66;;;3.75;100.00
596;BME280;19946;49.306;11.350;2023-01-13T17:16:52;96305.78;;;4.31;100.00
596;BME280;19946;49.306;11.350;2023-01-13T17:19:53;96147.75;;;3.36;100.00
596;BME280;19946;49.306;11.350;2023-01-13T17:22:54;96215.84;;;3.66;100.00
596;BME280;19946;49.306;11.350;2023-01-13T17:25:54;96308.88;;;4.22;100.00
596;BME280;19946;49.306;11.350;2023-01-13T17:28:54;96298.00;;;4.19;100.00
596;BME280;19946;49.306;11.350;2023-01-13T17:31:55;96239.69;;;3.81;100.00
596;BME280;19946;49.306;11.350;2023-01-13T17:34:55;96299.84;;;4.17;100.00
596;BME280;19946;49.306;11.350;2023-01-13T17:37:56;96282.41;;;3.95;100.00
596;BME280;19946;49.306;11.350;2023-01-13T17:41:05;96312.31;;;4.09;100.00
596;BME280;19946;49.306;11.350;2023-01-13T17:44:06;96199.75;;;3.36;100.00
596;BME280;19946;49.306;11.350;2023-01-13T17:47:06;96314.47;;;4.00;100.00
596;BME280;19946;49.306;11.350;2023-01-13T17:50:07;96261.72;;;3.70;100.00
596;BME280;19946;49.306;11.350;2023-01-13T17:53:07;96317.22;;;4.12;100.00